Terminal Aerodrome Forecast
Issued by NWS

Home | Current Version | Previous Version | Text Only | Print | Product List | Glossary On
Versions: 1 2 3 4 5 6 7 8 9 10 11 12 13 14 15 16 17 18 19 20 21 22 23 24
000
FTUS41 KOKX 230007 RRA
TAFSWF
TAF
KSWF 230007Z 2300/2406 32014G23KT P6SM FEW070
     FM230500 30010KT P6SM SKC
     FM230700 29008KT P6SM SKC
     FM232200 26007KT P6SM FEW250
      AMD NOT SKED=

USA.gov is the U.S. government's official web portal to all federal, state and local government web resources and services.